sensor_id;sensor_type;location;lat;lon;timestamp;P1;durP1;ratioP1;P2;durP2;ratioP2
10277;SDS011;5184;51.376;7.148;2024-01-06T00:00:47;17.30;;;11.67;;
10277;SDS011;5184;51.376;7.148;2024-01-06T00:03:14;16.20;;;11.27;;
10277;SDS011;5184;51.376;7.148;2024-01-06T00:05:40;16.77;;;11.13;;
10277;SDS011;5184;51.376;7.148;2024-01-06T00:08:08;16.53;;;11.83;;
10277;SDS011;5184;51.376;7.148;2024-01-06T00:10:35;15.37;;;11.47;;
10277;SDS011;5184;51.376;7.148;2024-01-06T00:13:02;14.70;;;10.97;;
10277;SDS011;5184;51.376;7.148;2024-01-06T00:15:28;17.60;;;11.47;;
10277;SDS011;5184;51.376;7.148;2024-01-06T00:17:55;14.93;;;10.97;;
10277;SDS011;5184;51.376;7.148;2024-01-06T00:20:22;18.03;;;11.13;;
10277;SDS011;5184;51.376;7.148;2024-01-06T00:22:49;15.40;;;11.13;;
10277;SDS011;5184;51.376;7.148;2024-01-06T00:25:16;15.20;;;10.63;;
10277;SDS011;5184;51.376;7.148;2024-01-06T00:27:42;15.67;;;11.23;;
10277;SDS011;5184;51.376;7.148;2024-01-06T00:30:09;17.27;;;11.03;;
10277;SDS011;5184;51.376;7.148;2024-01-06T00:32:36;17.63;;;10.97;;
10277;SDS011;5184;51.376;7.148;2024-01-06T00:35:04;12.73;;;9.50;;
10277;SDS011;5184;51.376;7.148;2024-01-06T00:37:31;14.93;;;9.70;;
10277;SDS011;5184;51.376;7.148;2024-01-06T00:39:59;16.17;;;10.63;;
10277;SDS011;5184;51.376;7.148;2024-01-06T00:42:25;14.97;;;9.90;;
10277;SDS011;5184;51.376;7.148;2024-01-06T00:44:53;15.10;;;10.37;;
10277;SDS011;5184;51.376;7.148;2024-01-06T00:47:19;16.10;;;10.47;;
10277;SDS011;5184;51.376;7.148;2024-01-06T00:49:46;15.07;;;10.10;;
10277;SDS011;5184;51.376;7.148;2024-01-06T00:52:13;15.17;;;10.50;;
10277;SDS011;5184;51.376;7.148;2024-01-06T00:54:40;13.83;;;9.93;;
10277;SDS011;5184;51.376;7.148;2024-01-06T00:57:07;14.50;;;10.07;;
10277;SDS011;5184;51.376;7.148;2024-01-06T00:59:35;14.37;;;10.47;;
10277;SDS011;5184;51.376;7.148;2024-01-06T01:02:02;17.60;;;10.60;;
10277;SDS011;5184;51.376;7.148;2024-01-06T01:04:29;14.60;;;11.17;;
10277;SDS011;5184;51.376;7.148;2024-01-06T01:06:55;15.07;;;10.57;;
10277;SDS011;5184;51.376;7.148;2024-01-06T01:09:22;13.80;;;10.50;;
10277;SDS011;5184;51.376;7.148;2024-01-06T01:11:49;14.00;;;10.13;;
10277;SDS011;5184;51.376;7.148;2024-01-06T01:14:16;14.70;;;10.57;;
10277;SDS011;5184;51.376;7.148;2024-01-06T01:16:44;14.43;;;10.37;;
10277;SDS011;5184;51.376;7.148;2024-01-06T01:19:10;13.10;;;9.37;;
10277;SDS011;5184;51.376;7.148;2024-01-06T01:21:37;15.27;;;10.07;;
10277;SDS011;5184;51.376;7.148;2024-01-06T01:24:04;13.53;;;10.10;;
10277;SDS011;5184;51.376;7.148;2024-01-06T01:26:30;17.50;;;11.47;;
10277;SDS011;5184;51.376;7.148;2024-01-06T01:28:57;16.27;;;10.67;;
10277;SDS011;5184;51.376;7.148;2024-01-06T01:31:24;15.70;;;10.70;;
10277;SDS011;5184;51.376;7.148;2024-01-06T01:33:51;15.10;;;10.50;;
10277;SDS011;5184;51.376;7.148;2024-01-06T01:36:18;16.00;;;11.17;;
10277;SDS011;5184;51.376;7.148;2024-01-06T01:38:46;15.70;;;11.20;;
10277;SDS011;5184;51.376;7.148;2024-01-06T01:41:12;15.80;;;10.53;;
10277;SDS011;5184;51.376;7.148;2024-01-06T01:43:39;18.23;;;12.03;;
10277;SDS011;5184;51.376;7.148;2024-01-06T01:46:06;18.23;;;12.70;;
10277;SDS011;5184;51.376;7.148;2024-01-06T01:48:32;19.90;;;12.13;;
10277;SDS011;5184;51.376;7.148;2024-01-06T01:50:59;21.23;;;13.47;;
10277;SDS011;5184;51.376;7.148;2024-01-06T01:53:26;19.67;;;12.17;;
10277;SDS011;5184;51.376;7.148;2024-01-06T01:55:53;19.97;;;14.00;;
10277;SDS011;5184;51.376;7.148;2024-01-06T01:58:19;22.13;;;13.93;;
10277;SDS011;5184;51.376;7.148;2024-01-06T02:00:46;22.17;;;14.27;;
10277;SDS011;5184;51.376;7.148;2024-01-06T02:03:13;21.90;;;14.33;;
10277;SDS011;5184;51.376;7.148;2024-01-06T02:05:39;20.10;;;13.53;;
10277;SDS011;5184;51.376;7.148;2024-01-06T02:08:06;20.03;;;13.80;;
10277;SDS011;5184;51.376;7.148;2024-01-06T02:10:34;18.77;;;12.63;;
10277;SDS011;5184;51.376;7.148;2024-01-06T02:13:07;19.27;;;12.80;;
10277;SDS011;5184;51.376;7.148;2024-01-06T02:15:36;18.90;;;12.70;;
10277;SDS011;5184;51.376;7.148;2024-01-06T02:18:03;19.20;;;13.13;;
10277;SDS011;5184;51.376;7.148;2024-01-06T02:20:30;20.70;;;13.10;;
10277;SDS011;5184;51.376;7.148;2024-01-06T02:22:56;19.07;;;12.47;;
10277;SDS011;5184;51.376;7.148;2024-01-06T02:25:24;21.93;;;13.53;;
10277;SDS011;5184;51.376;7.148;2024-01-06T02:27:50;22.07;;;13.47;;
10277;SDS011;5184;51.376;7.148;2024-01-06T02:30:17;21.17;;;13.00;;
10277;SDS011;5184;51.376;7.148;2024-01-06T02:32:44;19.40;;;13.60;;
10277;SDS011;5184;51.376;7.148;2024-01-06T02:35:11;20.47;;;13.63;;
10277;SDS011;5184;51.376;7.148;2024-01-06T02:37:37;20.37;;;12.50;;
10277;SDS011;5184;51.376;7.148;2024-01-06T02:40:04;18.23;;;12.70;;
10277;SDS011;5184;51.376;7.148;2024-01-06T02:42:31;19.57;;;12.23;;
10277;SDS011;5184;51.376;7.148;2024-01-06T02:44:58;20.80;;;13.30;;
10277;SDS011;5184;51.376;7.148;2024-01-06T02:47:24;21.37;;;13.80;;
10277;SDS011;5184;51.376;7.148;2024-01-06T02:49:51;22.63;;;13.60;;
10277;SDS011;5184;51.376;7.148;2024-01-06T02:52:18;22.47;;;13.40;;
10277;SDS011;5184;51.376;7.148;2024-01-06T02:54:45;22.27;;;14.37;;
10277;SDS011;5184;51.376;7.148;2024-01-06T02:57:12;20.40;;;12.80;;
10277;SDS011;5184;51.376;7.148;2024-01-06T02:59:38;21.00;;;13.90;;
10277;SDS011;5184;51.376;7.148;2024-01-06T03:02:05;23.30;;;14.33;;
10277;SDS011;5184;51.376;7.148;2024-01-06T03:04:32;22.60;;;14.47;;
10277;SDS011;5184;51.376;7.148;2024-01-06T03:07:00;22.93;;;14.43;;
10277;SDS011;5184;51.376;7.148;2024-01-06T03:09:26;24.00;;;14.93;;
10277;SDS011;5184;51.376;7.148;2024-01-06T03:11:54;26.03;;;14.70;;
10277;SDS011;5184;51.376;7.148;2024-01-06T03:14:21;22.87;;;13.97;;
10277;SDS011;5184;51.376;7.148;2024-01-06T03:16:49;21.53;;;13.83;;
10277;SDS011;5184;51.376;7.148;2024-01-06T03:19:15;24.83;;;14.47;;
10277;SDS011;5184;51.376;7.148;2024-01-06T03:21:42;23.90;;;14.90;;
10277;SDS011;5184;51.376;7.148;2024-01-06T03:24:08;22.93;;;14.40;;
10277;SDS011;5184;51.376;7.148;2024-01-06T03:26:36;25.20;;;16.20;;
10277;SDS011;5184;51.376;7.148;2024-01-06T03:29:02;23.93;;;14.43;;
10277;SDS011;5184;51.376;7.148;2024-01-06T03:31:29;24.83;;;15.17;;
10277;SDS011;5184;51.376;7.148;2024-01-06T03:33:55;23.63;;;14.93;;
10277;SDS011;5184;51.376;7.148;2024-01-06T03:36:22;24.07;;;14.63;;
10277;SDS011;5184;51.376;7.148;2024-01-06T03:38:49;23.10;;;14.73;;
10277;SDS011;5184;51.376;7.148;2024-01-06T03:41:15;27.00;;;15.17;;
10277;SDS011;5184;51.376;7.148;2024-01-06T03:43:43;25.23;;;16.03;;
10277;SDS011;5184;51.376;7.148;2024-01-06T03:46:09;31.77;;;17.33;;
10277;SDS011;5184;51.376;7.148;2024-01-06T03:48:36;30.07;;;17.73;;
10277;SDS011;5184;51.376;7.148;2024-01-06T03:51:02;29.80;;;17.97;;
10277;SDS011;5184;51.376;7.148;2024-01-06T03:53:29;29.50;;;17.63;;
10277;SDS011;5184;51.376;7.148;2024-01-06T03:55:56;33.03;;;18.40;;
10277;SDS011;5184;51.376;7.148;2024-01-06T03:58:22;33.30;;;17.67;;
10277;SDS011;5184;51.376;7.148;2024-01-06T04:00:50;33.00;;;18.37;;
10277;SDS011;5184;51.376;7.148;2024-01-06T04:03:17;30.93;;;18.03;;
10277;SDS011;5184;51.376;7.148;2024-01-06T04:05:44;31.17;;;17.27;;
10277;SDS011;5184;51.376;7.148;2024-01-06T04:08:11;31.03;;;17.13;;
10277;SDS011;5184;51.376;7.148;2024-01-06T04:10:38;27.03;;;15.83;;
10277;SDS011;5184;51.376;7.148;2024-01-06T04:13:04;24.83;;;14.30;;
10277;SDS011;5184;51.376;7.148;2024-01-06T04:15:31;21.63;;;12.77;;
10277;SDS011;5184;51.376;7.148;2024-01-06T04:18:01;21.13;;;12.47;;
10277;SDS011;5184;51.376;7.148;2024-01-06T04:20:25;20.63;;;12.37;;
10277;SDS011;5184;51.376;7.148;2024-01-06T04:22:51;19.23;;;11.20;;
10277;SDS011;5184;51.376;7.148;2024-01-06T04:25:18;20.97;;;12.10;;
10277;SDS011;5184;51.376;7.148;2024-01-06T04:27:45;20.80;;;11.67;;
10277;SDS011;5184;51.376;7.148;2024-01-06T04:30:11;18.63;;;10.93;;
10277;SDS011;5184;51.376;7.148;2024-01-06T04:32:38;19.50;;;10.97;;
10277;SDS011;5184;51.376;7.148;2024-01-06T04:35:06;17.73;;;10.67;;
10277;SDS011;5184;51.376;7.148;2024-01-06T04:37:33;17.03;;;10.37;;
10277;SDS011;5184;51.376;7.148;2024-01-06T04:40:01;17.63;;;9.97;;
10277;SDS011;5184;51.376;7.148;2024-01-06T04:42:28;18.43;;;10.40;;
10277;SDS011;5184;51.376;7.148;2024-01-06T04:44:55;16.13;;;9.93;;
10277;SDS011;5184;51.376;7.148;2024-01-06T04:47:22;16.60;;;9.57;;
10277;SDS011;5184;51.376;7.148;2024-01-06T04:49:49;16.03;;;8.67;;
10277;SDS011;5184;51.376;7.148;2024-01-06T04:52:15;15.87;;;8.93;;
10277;SDS011;5184;51.376;7.148;2024-01-06T04:54:42;12.50;;;7.83;;
10277;SDS011;5184;51.376;7.148;2024-01-06T04:57:08;13.33;;;8.23;;
10277;SDS011;5184;51.376;7.148;2024-01-06T04:59:36;12.73;;;8.60;;
10277;SDS011;5184;51.376;7.148;2024-01-06T05:02:03;14.43;;;8.60;;
10277;SDS011;5184;51.376;7.148;2024-01-06T05:04:31;14.70;;;8.97;;
10277;SDS011;5184;51.376;7.148;2024-01-06T05:06:57;16.10;;;9.00;;
10277;SDS011;5184;51.376;7.148;2024-01-06T05:09:25;16.13;;;9.03;;
10277;SDS011;5184;51.376;7.148;2024-01-06T05:11:52;13.73;;;8.07;;
10277;SDS011;5184;51.376;7.148;2024-01-06T05:14:19;17.87;;;9.63;;
10277;SDS011;5184;51.376;7.148;2024-01-06T05:16:46;17.83;;;9.10;;
10277;SDS011;5184;51.376;7.148;2024-01-06T05:19:13;17.43;;;10.27;;
10277;SDS011;5184;51.376;7.148;2024-01-06T05:21:39;15.23;;;8.43;;
10277;SDS011;5184;51.376;7.148;2024-01-06T05:24:06;14.70;;;7.63;;
10277;SDS011;5184;51.376;7.148;2024-01-06T05:26:32;15.57;;;7.97;;
10277;SDS011;5184;51.376;7.148;2024-01-06T05:29:00;14.80;;;7.90;;
10277;SDS011;5184;51.376;7.148;2024-01-06T05:31:26;17.47;;;9.17;;
10277;SDS011;5184;51.376;7.148;2024-01-06T05:33:53;15.40;;;8.57;;
10277;SDS011;5184;51.376;7.148;2024-01-06T05:36:20;13.60;;;7.87;;
10277;SDS011;5184;51.376;7.148;2024-01-06T05:38:48;15.20;;;8.53;;
10277;SDS011;5184;51.376;7.148;2024-01-06T05:41:15;15.67;;;8.43;;
10277;SDS011;5184;51.376;7.148;2024-01-06T05:43:42;15.97;;;9.20;;
10277;SDS011;5184;51.376;7.148;2024-01-06T05:46:08;14.60;;;8.30;;
10277;SDS011;5184;51.376;7.148;2024-01-06T05:48:35;15.77;;;8.70;;
10277;SDS011;5184;51.376;7.148;2024-01-06T05:51:03;14.97;;;8.47;;
10277;SDS011;5184;51.376;7.148;2024-01-06T05:53:31;14.57;;;7.97;;
10277;SDS011;5184;51.376;7.148;2024-01-06T05:55:57;14.13;;;7.57;;
10277;SDS011;5184;51.376;7.148;2024-01-06T05:58:24;13.77;;;7.90;;
10277;SDS011;5184;51.376;7.148;2024-01-06T06:00:51;14.83;;;8.53;;
10277;SDS011;5184;51.376;7.148;2024-01-06T06:03:17;14.10;;;8.13;;
10277;SDS011;5184;51.376;7.148;2024-01-06T06:05:44;16.10;;;8.23;;
10277;SDS011;5184;51.376;7.148;2024-01-06T06:08:11;13.10;;;7.50;;
10277;SDS011;5184;51.376;7.148;2024-01-06T06:10:39;13.63;;;7.73;;
10277;SDS011;5184;51.376;7.148;2024-01-06T06:13:06;12.17;;;7.23;;
10277;SDS011;5184;51.376;7.148;2024-01-06T06:15:33;14.33;;;8.10;;
10277;SDS011;5184;51.376;7.148;2024-01-06T06:17:59;13.27;;;7.40;;
10277;SDS011;5184;51.376;7.148;2024-01-06T06:20:27;13.67;;;8.00;;
10277;SDS011;5184;51.376;7.148;2024-01-06T06:22:54;15.50;;;8.27;;
10277;SDS011;5184;51.376;7.148;2024-01-06T06:25:21;14.73;;;8.27;;
10277;SDS011;5184;51.376;7.148;2024-01-06T06:27:49;13.83;;;8.20;;
10277;SDS011;5184;51.376;7.148;2024-01-06T06:30:16;12.47;;;7.90;;
10277;SDS011;5184;51.376;7.148;2024-01-06T06:32:43;11.87;;;7.10;;
10277;SDS011;5184;51.376;7.148;2024-01-06T06:35:09;13.07;;;7.00;;
10277;SDS011;5184;51.376;7.148;2024-01-06T06:37:36;12.30;;;7.53;;
10277;SDS011;5184;51.376;7.148;2024-01-06T06:40:03;14.20;;;7.82;;
10277;SDS011;5184;51.376;7.148;2024-01-06T06:42:30;12.07;;;6.83;;
10277;SDS011;5184;51.376;7.148;2024-01-06T06:44:56;15.90;;;8.20;;
10277;SDS011;5184;51.376;7.148;2024-01-06T06:47:23;12.40;;;7.47;;
10277;SDS011;5184;51.376;7.148;2024-01-06T06:49:49;10.83;;;7.03;;
10277;SDS011;5184;51.376;7.148;2024-01-06T06:52:17;13.00;;;7.87;;
10277;SDS011;5184;51.376;7.148;2024-01-06T06:54:44;14.07;;;7.93;;
10277;SDS011;5184;51.376;7.148;2024-01-06T06:57:11;12.00;;;7.07;;
10277;SDS011;5184;51.376;7.148;2024-01-06T06:59:37;13.33;;;7.73;;
10277;SDS011;5184;51.376;7.148;2024-01-06T07:02:04;13.50;;;7.70;;
10277;SDS011;5184;51.376;7.148;2024-01-06T07:04:30;12.97;;;7.47;;
10277;SDS011;5184;51.376;7.148;2024-01-06T07:06:57;13.77;;;7.87;;
10277;SDS011;5184;51.376;7.148;2024-01-06T07:09:24;12.33;;;7.33;;
10277;SDS011;5184;51.376;7.148;2024-01-06T07:11:52;13.70;;;7.97;;
10277;SDS011;5184;51.376;7.148;2024-01-06T07:14:19;13.77;;;7.90;;
10277;SDS011;5184;51.376;7.148;2024-01-06T07:16:46;12.03;;;7.03;;
10277;SDS011;5184;51.376;7.148;2024-01-06T07:19:13;12.80;;;7.17;;
10277;SDS011;5184;51.376;7.148;2024-01-06T07:21:40;11.60;;;7.10;;
10277;SDS011;5184;51.376;7.148;2024-01-06T07:24:06;11.67;;;6.90;;
10277;SDS011;5184;51.376;7.148;2024-01-06T07:26:34;12.47;;;7.63;;
10277;SDS011;5184;51.376;7.148;2024-01-06T07:29:00;11.80;;;6.60;;
10277;SDS011;5184;51.376;7.148;2024-01-06T07:31:28;12.23;;;7.30;;
10277;SDS011;5184;51.376;7.148;2024-01-06T07:33:55;18.63;;;10.90;;
10277;SDS011;5184;51.376;7.148;2024-01-06T07:36:23;16.83;;;11.53;;
10277;SDS011;5184;51.376;7.148;2024-01-06T07:38:49;24.07;;;13.50;;
10277;SDS011;5184;51.376;7.148;2024-01-06T07:41:17;20.23;;;12.63;;
10277;SDS011;5184;51.376;7.148;2024-01-06T07:43:44;18.00;;;12.20;;
10277;SDS011;5184;51.376;7.148;2024-01-06T07:46:11;20.77;;;12.93;;
10277;SDS011;5184;51.376;7.148;2024-01-06T07:48:38;21.50;;;12.90;;
10277;SDS011;5184;51.376;7.148;2024-01-06T07:51:05;20.20;;;12.93;;
10277;SDS011;5184;51.376;7.148;2024-01-06T07:53:33;23.43;;;14.07;;
10277;SDS011;5184;51.376;7.148;2024-01-06T07:56:00;22.43;;;14.77;;
10277;SDS011;5184;51.376;7.148;2024-01-06T07:58:28;21.10;;;13.13;;
10277;SDS011;5184;51.376;7.148;2024-01-06T08:00:54;25.03;;;14.30;;
10277;SDS011;5184;51.376;7.148;2024-01-06T08:03:21;21.77;;;12.63;;
10277;SDS011;5184;51.376;7.148;2024-01-06T08:05:47;19.23;;;12.80;;
10277;SDS011;5184;51.376;7.148;2024-01-06T08:08:15;20.63;;;12.80;;
10277;SDS011;5184;51.376;7.148;2024-01-06T08:10:42;20.57;;;13.00;;
10277;SDS011;5184;51.376;7.148;2024-01-06T08:13:09;19.50;;;12.60;;
10277;SDS011;5184;51.376;7.148;2024-01-06T08:15:36;21.20;;;14.03;;
10277;SDS011;5184;51.376;7.148;2024-01-06T08:18:03;25.63;;;14.73;;
10277;SDS011;5184;51.376;7.148;2024-01-06T08:20:31;25.33;;;14.33;;
10277;SDS011;5184;51.376;7.148;2024-01-06T08:22:58;26.20;;;15.30;;
10277;SDS011;5184;51.376;7.148;2024-01-06T08:25:26;28.20;;;14.10;;
10277;SDS011;5184;51.376;7.148;2024-01-06T08:27:52;26.40;;;14.57;;
10277;SDS011;5184;51.376;7.148;2024-01-06T08:30:19;32.13;;;16.17;;
10277;SDS011;5184;51.376;7.148;2024-01-06T08:32:46;30.87;;;15.10;;
10277;SDS011;5184;51.376;7.148;2024-01-06T08:35:12;32.87;;;15.60;;
10277;SDS011;5184;51.376;7.148;2024-01-06T08:37:39;35.43;;;15.80;;
10277;SDS011;5184;51.376;7.148;2024-01-06T08:40:06;29.80;;;15.33;;
10277;SDS011;5184;51.376;7.148;2024-01-06T08:42:33;32.60;;;14.73;;
10277;SDS011;5184;51.376;7.148;2024-01-06T08:45:00;29.60;;;14.47;;
10277;SDS011;5184;51.376;7.148;2024-01-06T08:47:27;29.33;;;13.87;;
10277;SDS011;5184;51.376;7.148;2024-01-06T08:49:53;26.20;;;12.83;;
10277;SDS011;5184;51.376;7.148;2024-01-06T08:52:21;26.10;;;12.27;;
10277;SDS011;5184;51.376;7.148;2024-01-06T08:54:48;24.77;;;12.30;;
10277;SDS011;5184;51.376;7.148;2024-01-06T08:57:15;27.57;;;13.07;;
10277;SDS011;5184;51.376;7.148;2024-01-06T08:59:42;25.77;;;12.27;;
10277;SDS011;5184;51.376;7.148;2024-01-06T09:02:09;26.00;;;13.13;;
10277;SDS011;5184;51.376;7.148;2024-01-06T09:04:36;26.30;;;12.57;;
10277;SDS011;5184;51.376;7.148;2024-01-06T09:07:02;28.67;;;13.00;;
10277;SDS011;5184;51.376;7.148;2024-01-06T09:09:29;27.70;;;12.67;;
10277;SDS011;5184;51.376;7.148;2024-01-06T09:11:56;25.70;;;12.30;;
10277;SDS011;5184;51.376;7.148;2024-01-06T09:14:22;26.93;;;12.53;;
10277;SDS011;5184;51.376;7.148;2024-01-06T09:16:49;26.30;;;12.97;;
10277;SDS011;5184;51.376;7.148;2024-01-06T09:19:15;26.03;;;13.40;;
10277;SDS011;5184;51.376;7.148;2024-01-06T09:21:42;26.33;;;12.37;;
10277;SDS011;5184;51.376;7.148;2024-01-06T09:24:09;33.20;;;13.63;;
10277;SDS011;5184;51.376;7.148;2024-01-06T09:26:37;25.50;;;13.20;;
10277;SDS011;5184;51.376;7.148;2024-01-06T09:29:04;27.13;;;13.40;;
10277;SDS011;5184;51.376;7.148;2024-01-06T09:31:31;25.33;;;12.33;;
10277;SDS011;5184;51.376;7.148;2024-01-06T09:34:00;29.83;;;13.47;;
10277;SDS011;5184;51.376;7.148;2024-01-06T09:36:30;26.87;;;12.90;;
10277;SDS011;5184;51.376;7.148;2024-01-06T09:38:56;24.30;;;11.93;;
10277;SDS011;5184;51.376;7.148;2024-01-06T09:41:23;25.27;;;12.43;;
10277;SDS011;5184;51.376;7.148;2024-01-06T09:43:49;22.63;;;12.10;;
10277;SDS011;5184;51.376;7.148;2024-01-06T09:46:21;22.83;;;11.43;;
10277;SDS011;5184;51.376;7.148;2024-01-06T09:48:52;23.50;;;12.00;;
10277;SDS011;5184;51.376;7.148;2024-01-06T09:51:19;22.37;;;11.83;;
10277;SDS011;5184;51.376;7.148;2024-01-06T09:53:49;21.47;;;11.00;;
10277;SDS011;5184;51.376;7.148;2024-01-06T09:56:16;24.20;;;11.90;;
10277;SDS011;5184;51.376;7.148;2024-01-06T09:58:43;21.33;;;10.97;;
10277;SDS011;5184;51.376;7.148;2024-01-06T10:01:09;26.50;;;11.80;;
10277;SDS011;5184;51.376;7.148;2024-01-06T10:03:37;21.60;;;11.20;;
10277;SDS011;5184;51.376;7.148;2024-01-06T10:06:04;23.77;;;11.80;;
10277;SDS011;5184;51.376;7.148;2024-01-06T10:08:31;21.07;;;11.30;;
10277;SDS011;5184;51.376;7.148;2024-01-06T10:10:59;21.30;;;10.97;;
10277;SDS011;5184;51.376;7.148;2024-01-06T10:13:25;25.20;;;12.97;;
10277;SDS011;5184;51.376;7.148;2024-01-06T10:15:53;25.57;;;13.80;;
10277;SDS011;5184;51.376;7.148;2024-01-06T10:18:20;24.20;;;12.77;;
10277;SDS011;5184;51.376;7.148;2024-01-06T10:20:47;24.10;;;12.53;;
10277;SDS011;5184;51.376;7.148;2024-01-06T10:23:13;24.30;;;12.70;;
10277;SDS011;5184;51.376;7.148;2024-01-06T10:25:40;24.27;;;12.87;;
10277;SDS011;5184;51.376;7.148;2024-01-06T10:28:07;22.13;;;11.80;;
10277;SDS011;5184;51.376;7.148;2024-01-06T10:30:34;23.13;;;11.07;;
10277;SDS011;5184;51.376;7.148;2024-01-06T10:33:02;24.30;;;11.73;;
10277;SDS011;5184;51.376;7.148;2024-01-06T10:35:29;22.67;;;11.70;;
10277;SDS011;5184;51.376;7.148;2024-01-06T10:37:56;21.37;;;11.90;;
10277;SDS011;5184;51.376;7.148;2024-01-06T10:40:23;18.70;;;9.87;;
10277;SDS011;5184;51.376;7.148;2024-01-06T10:42:50;18.17;;;10.27;;
10277;SDS011;5184;51.376;7.148;2024-01-06T10:45:17;18.43;;;10.00;;
10277;SDS011;5184;51.376;7.148;2024-01-06T10:47:44;22.13;;;10.97;;
10277;SDS011;5184;51.376;7.148;2024-01-06T10:50:11;18.90;;;11.80;;
10277;SDS011;5184;51.376;7.148;2024-01-06T10:52:37;19.70;;;11.53;;
10277;SDS011;5184;51.376;7.148;2024-01-06T10:55:04;20.47;;;12.17;;
10277;SDS011;5184;51.376;7.148;2024-01-06T10:57:30;20.50;;;11.00;;
10277;SDS011;5184;51.376;7.148;2024-01-06T10:59:58;22.37;;;11.27;;
10277;SDS011;5184;51.376;7.148;2024-01-06T11:02:25;19.57;;;10.80;;
10277;SDS011;5184;51.376;7.148;2024-01-06T11:04:52;18.33;;;10.97;;
10277;SDS011;5184;51.376;7.148;2024-01-06T11:07:20;19.73;;;11.77;;
10277;SDS011;5184;51.376;7.148;2024-01-06T11:09:57;23.20;;;11.60;;
10277;SDS011;5184;51.376;7.148;2024-01-06T11:12:18;21.10;;;12.20;;
10277;SDS011;5184;51.376;7.148;2024-01-06T11:14:45;20.07;;;11.63;;
10277;SDS011;5184;51.376;7.148;2024-01-06T11:17:12;18.77;;;11.73;;
10277;SDS011;5184;51.376;7.148;2024-01-06T11:19:42;20.27;;;11.70;;
10277;SDS011;5184;51.376;7.148;2024-01-06T11:24:47;19.97;;;12.23;;
10277;SDS011;5184;51.376;7.148;2024-01-06T11:27:18;22.97;;;12.47;;
10277;SDS011;5184;51.376;7.148;2024-01-06T11:29:44;23.40;;;12.33;;
10277;SDS011;5184;51.376;7.148;2024-01-06T11:32:17;19.77;;;10.07;;
10277;SDS011;5184;51.376;7.148;2024-01-06T11:34:47;22.17;;;10.70;;
10277;SDS011;5184;51.376;7.148;2024-01-06T11:37:13;18.03;;;10.00;;
10277;SDS011;5184;51.376;7.148;2024-01-06T11:39:41;22.53;;;11.13;;
10277;SDS011;5184;51.376;7.148;2024-01-06T11:42:09;18.97;;;10.00;;
10277;SDS011;5184;51.376;7.148;2024-01-06T11:44:37;25.07;;;11.30;;
10277;SDS011;5184;51.376;7.148;2024-01-06T11:47:03;20.37;;;11.00;;
10277;SDS011;5184;51.376;7.148;2024-01-06T11:49:30;21.77;;;10.43;;
10277;SDS011;5184;51.376;7.148;2024-01-06T11:51:57;18.73;;;10.40;;
10277;SDS011;5184;51.376;7.148;2024-01-06T11:54:24;20.10;;;10.23;;
10277;SDS011;5184;51.376;7.148;2024-01-06T11:56:51;21.00;;;10.80;;
10277;SDS011;5184;51.376;7.148;2024-01-06T11:59:19;18.17;;;10.37;;
10277;SDS011;5184;51.376;7.148;2024-01-06T12:01:47;22.87;;;10.50;;
10277;SDS011;5184;51.376;7.148;2024-01-06T12:04:14;17.20;;;10.17;;
10277;SDS011;5184;51.376;7.148;2024-01-06T12:06:42;17.90;;;10.00;;
10277;SDS011;5184;51.376;7.148;2024-01-06T12:09:11;18.47;;;9.50;;
10277;SDS011;5184;51.376;7.148;2024-01-06T12:11:41;17.67;;;9.73;;
10277;SDS011;5184;51.376;7.148;2024-01-06T12:14:08;18.67;;;10.00;;
10277;SDS011;5184;51.376;7.148;2024-01-06T12:16:34;17.60;;;9.10;;
10277;SDS011;5184;51.376;7.148;2024-01-06T12:19:01;15.50;;;9.43;;
10277;SDS011;5184;51.376;7.148;2024-01-06T12:21:27;15.20;;;9.07;;
10277;SDS011;5184;51.376;7.148;2024-01-06T12:23:54;17.97;;;9.50;;
10277;SDS011;5184;51.376;7.148;2024-01-06T12:26:21;16.63;;;9.97;;
10277;SDS011;5184;51.376;7.148;2024-01-06T12:28:49;18.13;;;10.63;;
10277;SDS011;5184;51.376;7.148;2024-01-06T12:31:16;17.37;;;10.67;;
10277;SDS011;5184;51.376;7.148;2024-01-06T12:33:43;17.10;;;9.87;;
10277;SDS011;5184;51.376;7.148;2024-01-06T12:36:11;16.40;;;9.97;;
10277;SDS011;5184;51.376;7.148;2024-01-06T12:38:38;18.13;;;10.47;;
10277;SDS011;5184;51.376;7.148;2024-01-06T12:41:06;24.07;;;12.20;;
10277;SDS011;5184;51.376;7.148;2024-01-06T12:43:32;26.37;;;13.43;;
10277;SDS011;5184;51.376;7.148;2024-01-06T12:45:59;23.80;;;13.00;;
10277;SDS011;5184;51.376;7.148;2024-01-06T12:48:25;24.33;;;14.53;;
10277;SDS011;5184;51.376;7.148;2024-01-06T12:50:53;27.57;;;16.00;;
10277;SDS011;5184;51.376;7.148;2024-01-06T12:53:20;28.43;;;16.83;;
10277;SDS011;5184;51.376;7.148;2024-01-06T12:55:47;27.87;;;15.63;;
10277;SDS011;5184;51.376;7.148;2024-01-06T12:58:13;35.70;;;16.83;;
10277;SDS011;5184;51.376;7.148;2024-01-06T13:00:40;34.30;;;16.20;;
10277;SDS011;5184;51.376;7.148;2024-01-06T13:03:07;32.80;;;16.17;;
10277;SDS011;5184;51.376;7.148;2024-01-06T13:05:35;28.80;;;15.50;;
10277;SDS011;5184;51.376;7.148;2024-01-06T13:08:01;32.33;;;16.50;;
10277;SDS011;5184;51.376;7.148;2024-01-06T13:10:28;29.40;;;15.90;;
10277;SDS011;5184;51.376;7.148;2024-01-06T13:12:54;25.40;;;15.30;;
10277;SDS011;5184;51.376;7.148;2024-01-06T13:15:21;28.30;;;14.60;;
10277;SDS011;5184;51.376;7.148;2024-01-06T13:17:48;26.13;;;15.33;;
10277;SDS011;5184;51.376;7.148;2024-01-06T13:20:16;28.57;;;16.50;;
10277;SDS011;5184;51.376;7.148;2024-01-06T13:22:43;29.10;;;15.97;;
10277;SDS011;5184;51.376;7.148;2024-01-06T13:25:10;28.27;;;15.70;;
10277;SDS011;5184;51.376;7.148;2024-01-06T13:27:36;28.63;;;15.23;;
10277;SDS011;5184;51.376;7.148;2024-01-06T13:30:03;29.27;;;16.07;;
10277;SDS011;5184;51.376;7.148;2024-01-06T13:32:31;28.40;;;15.27;;
10277;SDS011;5184;51.376;7.148;2024-01-06T13:34:58;30.37;;;15.93;;
10277;SDS011;5184;51.376;7.148;2024-01-06T13:37:25;27.43;;;15.03;;
10277;SDS011;5184;51.376;7.148;2024-01-06T13:39:52;27.03;;;15.27;;
10277;SDS011;5184;51.376;7.148;2024-01-06T13:42:18;25.97;;;14.47;;
10277;SDS011;5184;51.376;7.148;2024-01-06T13:44:45;24.13;;;14.30;;
10277;SDS011;5184;51.376;7.148;2024-01-06T13:47:12;23.57;;;13.97;;
10277;SDS011;5184;51.376;7.148;2024-01-06T13:49:40;22.60;;;12.90;;
10277;SDS011;5184;51.376;7.148;2024-01-06T13:52:07;22.50;;;12.53;;
10277;SDS011;5184;51.376;7.148;2024-01-06T13:54:34;22.33;;;12.00;;
10277;SDS011;5184;51.376;7.148;2024-01-06T13:57:00;21.53;;;11.77;;
10277;SDS011;5184;51.376;7.148;2024-01-06T13:59:27;22.00;;;12.23;;
10277;SDS011;5184;51.376;7.148;2024-01-06T14:01:54;19.17;;;10.97;;
10277;SDS011;5184;51.376;7.148;2024-01-06T14:04:21;20.50;;;11.13;;
10277;SDS011;5184;51.376;7.148;2024-01-06T14:06:48;22.53;;;12.07;;
10277;SDS011;5184;51.376;7.148;2024-01-06T14:09:15;20.13;;;10.93;;
10277;SDS011;5184;51.376;7.148;2024-01-06T14:11:41;17.20;;;10.40;;
10277;SDS011;5184;51.376;7.148;2024-01-06T14:14:09;18.37;;;10.50;;
10277;SDS011;5184;51.376;7.148;2024-01-06T14:16:36;20.73;;;11.57;;
10277;SDS011;5184;51.376;7.148;2024-01-06T14:19:03;18.07;;;10.87;;
10277;SDS011;5184;51.376;7.148;2024-01-06T14:21:30;17.63;;;10.07;;
10277;SDS011;5184;51.376;7.148;2024-01-06T14:23:57;21.47;;;10.27;;
10277;SDS011;5184;51.376;7.148;2024-01-06T14:26:23;18.70;;;10.63;;
10277;SDS011;5184;51.376;7.148;2024-01-06T14:28:50;16.53;;;10.10;;
10277;SDS011;5184;51.376;7.148;2024-01-06T14:31:18;17.83;;;10.33;;
10277;SDS011;5184;51.376;7.148;2024-01-06T14:33:45;18.87;;;10.97;;
10277;SDS011;5184;51.376;7.148;2024-01-06T14:36:12;17.60;;;9.80;;
10277;SDS011;5184;51.376;7.148;2024-01-06T14:38:38;17.40;;;9.97;;